Check out our new BloomSky Weather System.

Active alerts


No alerts


Thunder radar  blitzortung!


Rain radar more information rain snow radar


Visit our other weather sites:

Template documentation
and downloads

And another site



Weather Underground History page Text

Daily Summary for May 14, 2017 Units:  English    Metric   Both
« Previous Day
Next Day »
Daily Weekly Monthly Yearly Custom
  High: Low: Average:
Temperature: 88.9 °F 63.0 °F 76.7 °F
Dew Point: 69.8 °F 61.5 °F 65.8 °F
Humidity: 96 % 45 % 72 %
Wind Speed: 8.0 mph 0.0 mph 2.1 mph
Wind Gust: 13.0 mph - -
Wind:- - SE
Pressure: 29.97 in 29.86 in -
Precipitation: 0.00 in    
Historical Graphs
 
 
Tabular Data for May 14, 2017
Time Temperature Dew Point Pressure Wind Wind Speed Wind Gust Humidity Rainfall Rate (Hourly)
00:04 71.8 °F 64.6 °F 29.91 in Calm   5.0 mph 78 % 0.00 in
00:09 71.4 °F 64.2 °F 29.91 in Calm   5.0 mph 78 % 0.00 in
00:14 71.1 °F 64.2 °F 29.91 in Calm   3.0 mph 79 % 0.00 in
00:19 70.7 °F 64.2 °F 29.91 in Calm   2.0 mph 80 % 0.00 in
00:24 70.3 °F 63.9 °F 29.91 in Calm   1.0 mph 80 % 0.00 in
00:29 70.2 °F 64.0 °F 29.91 in Calm   1.0 mph 81 % 0.00 in
00:34 70.0 °F 64.2 °F 29.91 in Calm   1.0 mph 82 % 0.00 in
00:39 69.6 °F 63.9 °F 29.91 in Calm     82 % 0.00 in
00:44 69.4 °F 63.7 °F 29.91 in Calm   1.0 mph 82 % 0.00 in
00:49 69.1 °F 63.7 °F 29.91 in Calm   1.0 mph 83 % 0.00 in
00:54 68.9 °F 63.9 °F 29.91 in Calm   1.0 mph 84 % 0.00 in
00:59 68.9 °F 63.9 °F 29.91 in Calm     84 % 0.00 in
01:04 68.9 °F 64.2 °F 29.91 in Calm     85 % 0.00 in
01:09 68.9 °F 64.2 °F 29.91 in Calm     85 % 0.00 in
01:14 68.7 °F 64.0 °F 29.91 in Calm   1.0 mph 85 % 0.00 in
01:19 68.5 °F 63.9 °F 29.91 in Calm   1.0 mph 85 % 0.00 in
01:24 68.5 °F 64.2 °F 29.91 in Calm   1.0 mph 86 % 0.00 in
01:29 68.5 °F 64.2 °F 29.91 in Calm   1.0 mph 86 % 0.00 in
01:34 68.5 °F 64.2 °F 29.91 in Calm   1.0 mph 86 % 0.00 in
01:39 68.4 °F 64.0 °F 29.91 in Calm     86 % 0.00 in
01:44 68.0 °F 63.7 °F 29.91 in Calm     86 % 0.00 in
01:49 68.2 °F 64.2 °F 29.91 in Calm     87 % 0.00 in
01:54 68.2 °F 64.2 °F 29.91 in Calm     87 % 0.00 in
01:59 67.8 °F 63.9 °F 29.91 in Calm     87 % 0.00 in
02:04 67.8 °F 63.9 °F 29.91 in Calm     87 % 0.00 in
02:09 67.8 °F 63.9 °F 29.91 in Calm     87 % 0.00 in
02:14 67.8 °F 63.9 °F 29.91 in Calm     87 % 0.00 in
02:20 67.6 °F 64.0 °F 29.91 in Calm     88 % 0.00 in
02:25 67.6 °F 64.0 °F 29.90 in Calm     88 % 0.00 in
02:30 67.5 °F 63.5 °F 29.90 in Calm     87 % 0.00 in
02:35 67.3 °F 63.7 °F 29.90 in Calm     88 % 0.00 in
02:40 67.3 °F 63.7 °F 29.90 in Calm     88 % 0.00 in
02:45 67.1 °F 63.7 °F 29.90 in Calm     89 % 0.00 in
02:50 67.3 °F 63.9 °F 29.90 in Calm     89 % 0.00 in
02:55 67.3 °F 63.9 °F 29.90 in Calm     89 % 0.00 in
03:00 67.3 °F 63.7 °F 29.90 in Calm     88 % 0.00 in
03:05 67.3 °F 63.7 °F 29.90 in Calm     88 % 0.00 in
03:10 67.3 °F 63.9 °F 29.90 in Calm     89 % 0.00 in
03:15 67.1 °F 63.7 °F 29.90 in Calm     89 % 0.00 in
03:20 66.9 °F 63.3 °F 29.90 in Calm     88 % 0.00 in
03:25 66.7 °F 63.3 °F 29.90 in Calm     89 % 0.00 in
03:30 66.6 °F 63.1 °F 29.90 in Calm     89 % 0.00 in
03:35 66.4 °F 63.0 °F 29.90 in Calm     89 % 0.00 in
03:40 66.0 °F 62.6 °F 29.90 in Calm     89 % 0.00 in
03:45 65.8 °F 62.8 °F 29.90 in Calm     90 % 0.00 in
03:50 65.8 °F 62.8 °F 29.90 in Calm     90 % 0.00 in
03:55 65.8 °F 62.8 °F 29.90 in Calm     90 % 0.00 in
04:00 65.8 °F 63.1 °F 29.90 in Calm     91 % 0.00 in
04:05 65.7 °F 63.0 °F 29.90 in Calm     91 % 0.00 in
04:10 65.7 °F 63.0 °F 29.90 in Calm     91 % 0.00 in
04:15 65.3 °F 62.6 °F 29.90 in Calm     91 % 0.00 in
04:20 65.3 °F 62.6 °F 29.90 in Calm     91 % 0.00 in
04:25 65.1 °F 62.4 °F 29.91 in Calm     91 % 0.00 in
04:30 64.9 °F 62.6 °F 29.91 in Calm     92 % 0.00 in
04:35 64.8 °F 62.4 °F 29.91 in Calm     92 % 0.00 in
04:40 64.6 °F 62.2 °F 29.91 in Calm     92 % 0.00 in
04:45 64.6 °F 62.2 °F 29.91 in Calm     92 % 0.00 in
04:50 64.6 °F 62.4 °F 29.91 in Calm     93 % 0.00 in
04:55 64.6 °F 62.4 °F 29.91 in Calm     93 % 0.00 in
05:00 64.6 °F 62.4 °F 29.91 in Calm     93 % 0.00 in
05:05 64.2 °F 62.2 °F 29.91 in Calm     93 % 0.00 in
05:06 64.2 °F 62.2 °F 29.91 in Calm     93 % 0.00 in
05:11 64.2 °F 62.2 °F 29.91 in Calm     93 % 0.00 in
05:16 64.0 °F 62.1 °F 29.91 in Calm     93 % 0.00 in
05:21 63.9 °F 61.9 °F 29.91 in Calm     93 % 0.00 in
05:26 64.0 °F 62.1 °F 29.91 in Calm     93 % 0.00 in
05:31 64.0 °F 62.1 °F 29.92 in Calm     93 % 0.00 in
05:36 64.0 °F 62.1 °F 29.92 in Calm     93 % 0.00 in
05:41 63.9 °F 62.1 °F 29.92 in Calm     94 % 0.00 in
05:47 63.7 °F 61.9 °F 29.92 in Calm     94 % 0.00 in
05:51 63.5 °F 61.7 °F 29.93 in Calm     94 % 0.00 in
05:56 63.3 °F 61.5 °F 29.93 in Calm     94 % 0.00 in
06:01 63.3 °F 61.5 °F 29.93 in Calm     94 % 0.00 in
06:06 63.3 °F 61.5 °F 29.92 in Calm     94 % 0.00 in
06:11 63.3 °F 61.5 °F 29.92 in Calm     94 % 0.00 in
06:16 63.3 °F 61.9 °F 29.92 in Calm     95 % 0.00 in
06:21 63.3 °F 61.9 °F 29.92 in Calm     95 % 0.00 in
06:26 63.1 °F 61.7 °F 29.92 in Calm     95 % 0.00 in
06:31 63.1 °F 61.7 °F 29.92 in Calm     95 % 0.00 in
06:36 63.1 °F 61.7 °F 29.92 in Calm   6.0 mph 95 % 0.00 in
06:41 63.0 °F 61.5 °F 29.93 in Calm   6.0 mph 95 % 0.00 in
06:46 63.1 °F 61.7 °F 29.93 in Calm   6.0 mph 95 % 0.00 in
06:51 63.3 °F 61.9 °F 29.93 in Calm     95 % 0.00 in
06:56 63.3 °F 61.9 °F 29.93 in Calm     95 % 0.00 in
07:01 63.5 °F 62.1 °F 29.93 in Calm     95 % 0.00 in
07:06 63.9 °F 62.8 °F 29.93 in Calm     96 % 0.00 in
07:11 64.2 °F 63.1 °F 29.93 in Calm     96 % 0.00 in
07:16 64.8 °F 63.7 °F 29.93 in Calm   1.0 mph 96 % 0.00 in
07:21 65.8 °F 64.6 °F 29.93 in Calm   1.0 mph 96 % 0.00 in
07:26 66.6 °F 65.3 °F 29.93 in Calm   2.0 mph 96 % 0.00 in
07:31 67.3 °F 66.0 °F 29.93 in Calm   2.0 mph 96 % 0.00 in
07:36 68.2 °F 66.9 °F 29.93 in Calm   2.0 mph 96 % 0.00 in
07:41 68.7 °F 67.3 °F 29.94 in Calm   2.0 mph 95 % 0.00 in
07:46 68.9 °F 66.7 °F 29.94 in Calm   3.0 mph 93 % 0.00 in
07:51 69.4 °F 67.3 °F 29.94 in Calm   3.0 mph 93 % 0.00 in
07:56 70.3 °F 67.8 °F 29.94 in Calm   3.0 mph 92 % 0.00 in
08:01 71.2 °F 68.5 °F 29.94 in Calm   3.0 mph 91 % 0.00 in
08:06 72.0 °F 68.5 °F 29.94 in Calm   1.0 mph 89 % 0.00 in
08:11 72.7 °F 68.5 °F 29.94 in SSE 1.0 mph 1.0 mph 87 % 0.00 in
08:16 73.0 °F 68.2 °F 29.94 in Calm   2.0 mph 85 % 0.00 in
08:21 73.8 °F 68.5 °F 29.95 in SSE 2.0 mph 2.0 mph 84 % 0.00 in
08:26 74.5 °F 68.5 °F 29.95 in Calm   2.0 mph 82 % 0.00 in
08:27 74.5 °F 68.9 °F 29.95 in Calm   2.0 mph 83 % 0.00 in
08:32 75.4 °F 69.1 °F 29.95 in Calm   2.0 mph 81 % 0.00 in
08:37 76.1 °F 69.4 °F 29.95 in Calm   2.0 mph 80 % 0.00 in
08:42 76.6 °F 69.6 °F 29.95 in SE 1.0 mph 2.0 mph 79 % 0.00 in
08:47 77.2 °F 69.8 °F 29.95 in ENE 1.0 mph 2.0 mph 78 % 0.00 in
08:52 77.2 °F 69.1 °F 29.96 in SE 1.0 mph 3.0 mph 76 % 0.00 in
08:57 77.5 °F 69.8 °F 29.96 in SW 2.0 mph 3.0 mph 77 % 0.00 in
09:02 77.4 °F 69.3 °F 29.96 in ESE 2.0 mph 3.0 mph 76 % 0.00 in
09:07 77.2 °F 69.4 °F 29.96 in East 3.0 mph 6.0 mph 77 % 0.00 in
09:12 77.4 °F 69.6 °F 29.96 in South 1.0 mph 6.0 mph 77 % 0.00 in
09:17 77.5 °F 69.4 °F 29.96 in SSE 3.0 mph 6.0 mph 76 % 0.00 in
09:22 77.4 °F 69.3 °F 29.96 in SSE 3.0 mph 8.0 mph 76 % 0.00 in
09:26 77.5 °F 68.9 °F 29.96 in SSW 3.0 mph 8.0 mph 75 % 0.00 in
09:31 77.9 °F 69.3 °F 29.96 in SE 3.0 mph 8.0 mph 75 % 0.00 in
09:36 78.1 °F 68.7 °F 29.96 in SE 3.0 mph 8.0 mph 73 % 0.00 in
09:41 78.1 °F 69.1 °F 29.96 in SE 2.0 mph 6.0 mph 74 % 0.00 in
09:46 78.3 °F 68.9 °F 29.96 in SE 4.0 mph 6.0 mph 73 % 0.00 in
09:51 78.6 °F 68.9 °F 29.96 in ESE 7.0 mph 9.0 mph 72 % 0.00 in
09:56 79.0 °F 68.4 °F 29.97 in ESE 5.0 mph 9.0 mph 70 % 0.00 in
10:01 79.0 °F 68.7 °F 29.97 in East 6.0 mph 9.0 mph 71 % 0.00 in
10:06 78.6 °F 67.6 °F 29.97 in SE 4.0 mph 8.0 mph 69 % 0.00 in
10:11 78.3 °F 68.0 °F 29.97 in SE 3.0 mph 8.0 mph 71 % 0.00 in
10:16 78.3 °F 68.5 °F 29.97 in SE 4.0 mph 8.0 mph 72 % 0.00 in
10:21 78.4 °F 68.2 °F 29.97 in SE 5.0 mph 8.0 mph 71 % 0.00 in
10:26 79.2 °F 68.5 °F 29.97 in SE 6.0 mph 8.0 mph 70 % 0.00 in
10:31 79.3 °F 68.4 °F 29.96 in ESE 4.0 mph 8.0 mph 69 % 0.00 in
10:36 80.1 °F 68.5 °F 29.96 in ENE 2.0 mph 8.0 mph 68 % 0.00 in
10:41 80.6 °F 68.5 °F 29.96 in SE 5.0 mph 8.0 mph 67 % 0.00 in
10:46 80.2 °F 68.7 °F 29.96 in ESE 5.0 mph 7.0 mph 68 % 0.00 in
10:51 80.2 °F 68.4 °F 29.96 in ESE 4.0 mph 8.0 mph 67 % 0.00 in
10:56 80.8 °F 68.4 °F 29.96 in ESE 2.0 mph 8.0 mph 66 % 0.00 in
11:01 80.8 °F 67.5 °F 29.96 in East 2.0 mph 8.0 mph 64 % 0.00 in
11:06 80.8 °F 68.4 °F 29.96 in NE 3.0 mph 7.0 mph 66 % 0.00 in
11:11 81.5 °F 67.6 °F 29.96 in Calm   7.0 mph 63 % 0.00 in
11:16 81.7 °F 67.5 °F 29.96 in ESE 4.0 mph 6.0 mph 62 % 0.00 in
11:21 81.1 °F 67.3 °F 29.96 in SSE 5.0 mph 8.0 mph 63 % 0.00 in
11:26 81.1 °F 67.8 °F 29.96 in SE 5.0 mph 8.0 mph 64 % 0.00 in
11:31 81.5 °F 67.3 °F 29.96 in Calm   8.0 mph 62 % 0.00 in
11:36 81.3 °F 67.5 °F 29.96 in SE 4.0 mph 7.0 mph 63 % 0.00 in
11:41 81.1 °F 67.8 °F 29.96 in ENE 4.0 mph 7.0 mph 64 % 0.00 in
11:46 81.1 °F 66.0 °F 29.96 in Calm   9.0 mph 60 % 0.00 in
11:51 81.5 °F 67.3 °F 29.96 in SSE 2.0 mph 9.0 mph 62 % 0.00 in
11:56 81.3 °F 67.1 °F 29.96 in SE 2.0 mph 9.0 mph 62 % 0.00 in
12:01 81.3 °F 67.1 °F 29.96 in SE 5.0 mph 9.0 mph 62 % 0.00 in
12:06 82.0 °F 67.6 °F 29.96 in South 5.0 mph 9.0 mph 62 % 0.00 in
12:11 83.3 °F 68.4 °F 29.96 in South 5.0 mph 9.0 mph 61 % 0.00 in
12:16 83.8 °F 67.5 °F 29.96 in SE 4.0 mph 8.0 mph 58 % 0.00 in
12:20 83.8 °F 66.9 °F 29.96 in ESE 2.0 mph 8.0 mph 57 % 0.00 in
12:25 83.7 °F 67.3 °F 29.96 in SSE 3.0 mph 8.0 mph 58 % 0.00 in
12:30 84.0 °F 67.6 °F 29.96 in SSW 1.0 mph 10.0 mph 58 % 0.00 in
12:35 84.9 °F 67.5 °F 29.96 in SSW 2.0 mph 10.0 mph 56 % 0.00 in
12:40 84.6 °F 66.6 °F 29.95 in SE 1.0 mph 10.0 mph 55 % 0.00 in
12:45 84.0 °F 67.1 °F 29.95 in Calm   9.0 mph 57 % 0.00 in
12:50 83.8 °F 66.4 °F 29.95 in ENE 5.0 mph 7.0 mph 56 % 0.00 in
12:55 83.7 °F 66.7 °F 29.95 in ESE 3.0 mph 9.0 mph 57 % 0.00 in
13:00 84.7 °F 66.2 °F 29.95 in SE 7.0 mph 9.0 mph 54 % 0.00 in
13:05 85.8 °F 67.8 °F 29.95 in East 1.0 mph 9.0 mph 55 % 0.00 in
13:10 87.3 °F 66.9 °F 29.95 in SE 6.0 mph 8.0 mph 51 % 0.00 in
13:15 87.3 °F 66.9 °F 29.95 in East 4.0 mph 8.0 mph 51 % 0.00 in
13:20 86.7 °F 66.4 °F 29.94 in ESE 4.0 mph 7.0 mph 51 % 0.00 in
13:25 86.4 °F 66.0 °F 29.94 in ESE 6.0 mph 9.0 mph 51 % 0.00 in
13:30 86.2 °F 66.6 °F 29.94 in ENE 5.0 mph 9.0 mph 52 % 0.00 in
13:35 85.6 °F 66.0 °F 29.94 in ESE 3.0 mph 9.0 mph 52 % 0.00 in
13:40 85.6 °F 66.6 °F 29.94 in SE 3.0 mph 9.0 mph 53 % 0.00 in
13:45 86.0 °F 66.9 °F 29.94 in NE 3.0 mph 9.0 mph 53 % 0.00 in
13:50 86.2 °F 66.6 °F 29.94 in SSE 1.0 mph 8.0 mph 52 % 0.00 in
13:55 86.2 °F 65.8 °F 29.93 in East 1.0 mph 8.0 mph 51 % 0.00 in
14:00 85.3 °F 65.7 °F 29.93 in South 8.0 mph 8.0 mph 52 % 0.00 in
14:05 84.6 °F 65.5 °F 29.93 in ENE 4.0 mph 10.0 mph 53 % 0.00 in
14:10 84.6 °F 65.5 °F 29.93 in SE 6.0 mph 10.0 mph 53 % 0.00 in
14:15 84.7 °F 66.2 °F 29.93 in East 1.0 mph 10.0 mph 54 % 0.00 in
14:20 84.9 °F 66.9 °F 29.93 in SSE 3.0 mph 9.0 mph 55 % 0.00 in
14:25 85.8 °F 66.2 °F 29.92 in SSE 5.0 mph 9.0 mph 52 % 0.00 in
14:30 87.1 °F 66.2 °F 29.92 in ESE 6.0 mph 9.0 mph 50 % 0.00 in
14:35 87.6 °F 65.5 °F 29.92 in East 5.0 mph 10.0 mph 48 % 0.00 in
14:40 87.1 °F 66.2 °F 29.91 in East 4.0 mph 10.0 mph 50 % 0.00 in
14:45 87.8 °F 65.7 °F 29.91 in East 2.0 mph 10.0 mph 48 % 0.00 in
14:50 88.0 °F 65.8 °F 29.91 in NNE 3.0 mph 7.0 mph 48 % 0.00 in
14:55 88.0 °F 65.8 °F 29.91 in SSE 2.0 mph 13.0 mph 48 % 0.00 in
15:00 88.3 °F 65.5 °F 29.91 in East 5.0 mph 13.0 mph 47 % 0.00 in
15:05 88.9 °F 66.0 °F 29.91 in East 2.0 mph 13.0 mph 47 % 0.00 in
15:10 88.7 °F 65.8 °F 29.91 in SE 5.0 mph 7.0 mph 47 % 0.00 in
15:15 88.2 °F 64.8 °F 29.91 in ESE 2.0 mph 11.0 mph 46 % 0.00 in
15:20 87.6 °F 64.9 °F 29.91 in SSE 3.0 mph 11.0 mph 47 % 0.00 in
15:25 87.6 °F 66.0 °F 29.90 in SSE 4.0 mph 11.0 mph 49 % 0.00 in
15:30 88.3 °F 66.2 °F 29.90 in ENE 3.0 mph 10.0 mph 48 % 0.00 in
15:35 88.3 °F 64.9 °F 29.90 in SSE 2.0 mph 8.0 mph 46 % 0.00 in
15:40 88.7 °F 64.6 °F 29.90 in SSW 3.0 mph 6.0 mph 45 % 0.00 in
15:45 88.3 °F 65.5 °F 29.89 in NE 2.0 mph 6.0 mph 47 % 0.00 in
15:50 88.0 °F 65.8 °F 29.89 in ESE 4.0 mph 5.0 mph 48 % 0.00 in
15:56 86.7 °F 65.3 °F 29.89 in East 2.0 mph 8.0 mph 49 % 0.00 in
16:01 86.4 °F 65.5 °F 29.89 in East 4.0 mph 8.0 mph 50 % 0.00 in
16:06 87.3 °F 66.4 °F 29.89 in East 2.0 mph 8.0 mph 50 % 0.00 in
16:11 88.2 °F 67.1 °F 29.89 in Calm   9.0 mph 50 % 0.00 in
16:16 88.7 °F 67.1 °F 29.89 in SSE 1.0 mph 9.0 mph 49 % 0.00 in
16:21 88.5 °F 65.7 °F 29.88 in East 2.0 mph 9.0 mph 47 % 0.00 in
16:26 88.9 °F 66.6 °F 29.88 in NNE 7.0 mph 7.0 mph 48 % 0.00 in
16:31 88.0 °F 65.3 °F 29.88 in ESE 3.0 mph 7.0 mph 47 % 0.00 in
16:36 87.6 °F 66.0 °F 29.88 in SSE 4.0 mph 7.0 mph 49 % 0.00 in
16:41 88.3 °F 65.5 °F 29.88 in South 3.0 mph 8.0 mph 47 % 0.00 in
16:46 88.2 °F 65.3 °F 29.88 in ESE 4.0 mph 8.0 mph 47 % 0.00 in
16:51 88.3 °F 65.5 °F 29.88 in SSE 2.0 mph 8.0 mph 47 % 0.00 in
16:56 88.5 °F 65.1 °F 29.88 in ESE 5.0 mph 8.0 mph 46 % 0.00 in
17:01 88.3 °F 66.7 °F 29.88 in South 5.0 mph 9.0 mph 49 % 0.00 in
17:06 87.8 °F 66.2 °F 29.88 in SSW 4.0 mph 10.0 mph 49 % 0.00 in
17:11 87.8 °F 66.9 °F 29.88 in ENE 2.0 mph 10.0 mph 50 % 0.00 in
17:16 87.4 °F 65.8 °F 29.88 in SSE 4.0 mph 10.0 mph 49 % 0.00 in
17:21 87.8 °F 66.9 °F 29.87 in East 4.0 mph 8.0 mph 50 % 0.00 in
17:26 87.6 °F 66.7 °F 29.87 in South 3.0 mph 8.0 mph 50 % 0.00 in
17:31 87.4 °F 66.6 °F 29.87 in SSE 5.0 mph 9.0 mph 50 % 0.00 in
17:36 87.3 °F 66.4 °F 29.87 in SSE 4.0 mph 9.0 mph 50 % 0.00 in
17:41 87.3 °F 67.5 °F 29.87 in SE 2.0 mph 12.0 mph 52 % 0.00 in
17:46 87.3 °F 67.5 °F 29.87 in SSW 2.0 mph 12.0 mph 52 % 0.00 in
17:51 86.9 °F 67.1 °F 29.87 in ESE 6.0 mph 12.0 mph 52 % 0.00 in
17:56 86.7 °F 67.5 °F 29.87 in NNW 1.0 mph 8.0 mph 53 % 0.00 in
18:01 86.4 °F 66.7 °F 29.87 in North 3.0 mph 8.0 mph 52 % 0.00 in
18:07 86.4 °F 67.3 °F 29.86 in East 3.0 mph 9.0 mph 53 % 0.00 in
18:11 86.2 °F 67.1 °F 29.86 in SSE 2.0 mph 9.0 mph 53 % 0.00 in
18:16 86.4 °F 67.3 °F 29.86 in ESE 3.0 mph 9.0 mph 53 % 0.00 in
18:21 86.4 °F 67.3 °F 29.86 in ENE 2.0 mph 9.0 mph 53 % 0.00 in
18:26 86.0 °F 67.5 °F 29.86 in SSE 2.0 mph 9.0 mph 54 % 0.00 in
18:31 85.6 °F 67.1 °F 29.86 in SE 2.0 mph 7.0 mph 54 % 0.00 in
18:32 85.6 °F 67.1 °F 29.86 in ENE 4.0 mph 7.0 mph 54 % 0.00 in
18:37 85.6 °F 67.1 °F 29.86 in SE 8.0 mph 8.0 mph 54 % 0.00 in
18:42 85.5 °F 67.5 °F 29.86 in Calm   8.0 mph 55 % 0.00 in
18:47 85.5 °F 67.5 °F 29.86 in South 6.0 mph 8.0 mph 55 % 0.00 in
18:52 85.1 °F 67.1 °F 29.86 in SE 4.0 mph 8.0 mph 55 % 0.00 in
18:57 84.7 °F 67.3 °F 29.86 in ENE 4.0 mph 8.0 mph 56 % 0.00 in
19:02 84.6 °F 67.6 °F 29.86 in ESE 5.0 mph 9.0 mph 57 % 0.00 in
19:07 84.2 °F 67.3 °F 29.86 in ESE 4.0 mph 9.0 mph 57 % 0.00 in
19:12 83.7 °F 66.7 °F 29.86 in SE 6.0 mph 11.0 mph 57 % 0.00 in
19:17 83.1 °F 66.7 °F 29.86 in ESE 5.0 mph 11.0 mph 58 % 0.00 in
19:22 82.8 °F 66.9 °F 29.86 in SE 5.0 mph 12.0 mph 59 % 0.00 in
19:27 82.4 °F 67.1 °F 29.86 in South 4.0 mph 12.0 mph 60 % 0.00 in
19:31 82.2 °F 66.9 °F 29.86 in SSE 1.0 mph 12.0 mph 60 % 0.00 in
19:36 82.0 °F 66.7 °F 29.86 in SE 4.0 mph 9.0 mph 60 % 0.00 in
19:41 81.9 °F 66.6 °F 29.86 in SE 3.0 mph 7.0 mph 60 % 0.00 in
19:46 81.7 °F 66.9 °F 29.86 in SSE 4.0 mph 9.0 mph 61 % 0.00 in
19:51 81.5 °F 66.7 °F 29.86 in SE 3.0 mph 9.0 mph 61 % 0.00 in
19:56 81.1 °F 66.4 °F 29.87 in SE 3.0 mph 9.0 mph 61 % 0.00 in
20:01 81.0 °F 66.7 °F 29.87 in SSW 5.0 mph 9.0 mph 62 % 0.00 in
20:06 80.8 °F 66.6 °F 29.87 in SE 3.0 mph 9.0 mph 62 % 0.00 in
20:11 80.4 °F 66.7 °F 29.87 in ESE 5.0 mph 9.0 mph 63 % 0.00 in
20:16 80.2 °F 66.6 °F 29.87 in SE 4.0 mph 8.0 mph 63 % 0.00 in
20:21 79.9 °F 66.6 °F 29.87 in SSE 1.0 mph 8.0 mph 64 % 0.00 in
20:26 79.7 °F 66.4 °F 29.87 in SE 3.0 mph 8.0 mph 64 % 0.00 in
20:31 79.3 °F 66.6 °F 29.87 in SE 1.0 mph 8.0 mph 65 % 0.00 in
20:36 79.2 °F 66.4 °F 29.87 in ESE 3.0 mph 7.0 mph 65 % 0.00 in
20:41 79.0 °F 66.6 °F 29.87 in NE 3.0 mph 8.0 mph 66 % 0.00 in
20:46 79.0 °F 66.6 °F 29.87 in East 5.0 mph 8.0 mph 66 % 0.00 in
20:51 78.6 °F 66.4 °F 29.87 in SE 3.0 mph 8.0 mph 66 % 0.00 in
20:56 78.4 °F 66.6 °F 29.88 in SE 2.0 mph 7.0 mph 67 % 0.00 in
21:01 78.3 °F 66.7 °F 29.88 in SE 5.0 mph 7.0 mph 68 % 0.00 in
21:06 78.1 °F 66.7 °F 29.88 in SE 2.0 mph 7.0 mph 68 % 0.00 in
21:11 78.1 °F 66.7 °F 29.88 in SE 3.0 mph 6.0 mph 68 % 0.00 in
21:16 77.9 °F 66.9 °F 29.88 in ESE 4.0 mph 6.0 mph 69 % 0.00 in
21:21 77.7 °F 66.7 °F 29.89 in SE 2.0 mph 5.0 mph 69 % 0.00 in
21:26 77.5 °F 66.6 °F 29.89 in ESE 2.0 mph 5.0 mph 69 % 0.00 in
21:31 77.4 °F 66.7 °F 29.90 in ESE 2.0 mph 5.0 mph 70 % 0.00 in
21:36 77.2 °F 66.6 °F 29.90 in SE 2.0 mph 4.0 mph 70 % 0.00 in
21:41 77.2 °F 67.1 °F 29.90 in SSE 4.0 mph 7.0 mph 71 % 0.00 in
21:46 77.2 °F 67.1 °F 29.91 in SSE 3.0 mph 8.0 mph 71 % 0.00 in
21:51 77.0 °F 67.3 °F 29.91 in SSE 2.0 mph 8.0 mph 72 % 0.00 in
21:56 76.8 °F 67.1 °F 29.91 in SE 3.0 mph 8.0 mph 72 % 0.00 in
22:01 76.6 °F 67.3 °F 29.91 in ESE 2.0 mph 7.0 mph 73 % 0.00 in
22:06 76.5 °F 67.1 °F 29.91 in South 2.0 mph 7.0 mph 73 % 0.00 in
22:11 76.5 °F 67.6 °F 29.91 in SSE 6.0 mph 7.0 mph 74 % 0.00 in
22:16 76.3 °F 67.5 °F 29.92 in SSE 6.0 mph 7.0 mph 74 % 0.00 in
22:21 76.3 °F 67.5 °F 29.92 in SSW 4.0 mph 9.0 mph 74 % 0.00 in
22:26 75.9 °F 67.1 °F 29.92 in SE 3.0 mph 9.0 mph 74 % 0.00 in
22:31 75.7 °F 67.3 °F 29.92 in SE 3.0 mph 9.0 mph 75 % 0.00 in
22:36 75.6 °F 67.5 °F 29.92 in ESE 2.0 mph 7.0 mph 76 % 0.00 in
22:41 75.4 °F 67.3 °F 29.93 in South 2.0 mph 7.0 mph 76 % 0.00 in
22:46 75.0 °F 67.3 °F 29.93 in SE 4.0 mph 5.0 mph 77 % 0.00 in
22:51 74.8 °F 67.1 °F 29.93 in SSE 1.0 mph 6.0 mph 77 % 0.00 in
22:56 74.7 °F 66.9 °F 29.93 in SE 3.0 mph 9.0 mph 77 % 0.00 in
23:01 74.7 °F 66.9 °F 29.93 in SSE 2.0 mph 9.0 mph 77 % 0.00 in
23:06 74.5 °F 66.7 °F 29.93 in SSE 3.0 mph 9.0 mph 77 % 0.00 in
23:11 74.1 °F 66.4 °F 29.93 in SE 2.0 mph 8.0 mph 77 % 0.00 in
23:13 74.1 °F 66.4 °F 29.93 in SSW 3.0 mph 8.0 mph 77 % 0.00 in
23:18 74.1 °F 66.4 °F 29.93 in South 4.0 mph 8.0 mph 77 % 0.00 in
23:23 73.9 °F 66.6 °F 29.93 in SSE 3.0 mph 8.0 mph 78 % 0.00 in
23:28 73.8 °F 66.4 °F 29.93 in SE 3.0 mph 7.0 mph 78 % 0.00 in
23:30 73.8 °F 66.9 °F 29.93 in SE 3.0 mph 6.0 mph 79 % 0.00 in
23:35 73.6 °F 66.7 °F 29.94 in ESE 3.0 mph 6.0 mph 79 % 0.00 in
23:40 73.6 °F 66.7 °F 29.94 in SSW 3.0 mph 6.0 mph 79 % 0.00 in
23:45 73.2 °F 66.7 °F 29.94 in SSW 2.0 mph 6.0 mph 80 % 0.00 in
23:50 73.0 °F 66.6 °F 29.94 in SSW 1.0 mph 6.0 mph 80 % 0.00 in
23:55 72.9 °F 66.7 °F 29.94 in South 2.0 mph 6.0 mph 81 % 0.00 in
Spring, Texas: Villages of Bridgestone
Compliments of Weather Underground - 2.75 mb

Script developed by  Jim McMurry - jmcmurry@mwt.net Adapted for the template by  Wim van der Kuil - Leuven-Template.eu

You find our weather info also at:

UK Metoffice

WeatherCloud

Weather Underground

Mid-South Weather Network

AWEKAS

Citizen Weather Observer Program (CWOP)

HAMweather, WeatherForYou, PWS Weather

Equipment we use:

Weather-station
Davis Vantage Vue

Weather-program
Meteohub

Weather-server
Debian 7.9 x86 (Guest)

Provider
DreamHost

Davis Vantage Vue

Meteohub

Debian 7.9 x86 (Guest)

DreamHost